Time;durP1;ratioP1;P1;durP2;ratioP2;P2;SDS_P1;SDS_P2;PMS_P1;PMS_P2;Temp;Humidity;BMP_temperature;BMP_pressure;BME280_temperature;BME280_humidity;BME280_pressure;Samples;Min_cycle;Max_cycle;Signal;HPM_P1;HPM_P2
2024/02/22 00:02:27;;;;;;;5.60;2.33;;;;;;;8.76;88.60;99376.94;5045727;28;20233;-68
2024/02/22 00:04:54;;;;;;;3.20;2.17;;;;;;;8.75;89.35;99377.91;5044415;28;20601;-67
2024/02/22 00:07:22;;;;;;;4.73;2.83;;;;;;;8.74;89.75;99378.03;5052898;28;20200;-68
2024/02/22 00:09:48;;;;;;;3.63;2.20;;;;;;;8.72;90.37;99379.94;5049673;28;20206;-67
2024/02/22 00:12:15;;;;;;;4.50;2.63;;;;;;;8.73;91.31;99366.56;5053671;28;20240;-67
2024/02/22 00:14:41;;;;;;;4.20;2.60;;;;;;;8.71;91.46;99371.13;5053226;28;20682;-68
2024/02/22 00:17:08;;;;;;;2.30;1.70;;;;;;;8.70;92.25;99356.16;5050202;28;20229;-68
2024/02/22 00:19:34;;;;;;;7.20;2.37;;;;;;;8.67;92.72;99351.09;5049372;28;20208;-67
2024/02/22 00:22:00;;;;;;;4.43;2.10;;;;;;;8.66;93.54;99358.19;5047520;28;20216;-68
2024/02/22 00:24:28;;;;;;;2.70;1.87;;;;;;;8.64;93.98;99351.31;5052105;28;20569;-68
2024/02/22 00:26:55;;;;;;;3.60;2.00;;;;;;;8.63;94.21;99339.00;5045068;28;20194;-67
2024/02/22 00:29:21;;;;;;;2.80;1.50;;;;;;;8.65;94.74;99332.63;5040345;28;20201;-68
2024/02/22 00:31:48;;;;;;;4.43;1.80;;;;;;;8.64;94.96;99320.31;5042174;28;20225;-68
2024/02/22 00:34:14;;;;;;;2.27;2.00;;;;;;;8.64;94.68;99317.66;5055463;28;20232;-67
2024/02/22 00:36:41;;;;;;;5.03;2.20;;;;;;;8.62;94.87;99314.28;5049494;28;20768;-68
2024/02/22 00:39:09;;;;;;;3.10;2.00;;;;;;;8.59;95.13;99303.91;5049092;28;20198;-68
2024/02/22 00:41:37;;;;;;;5.73;2.50;;;;;;;8.59;95.66;99300.41;5051356;28;20237;-67
2024/02/22 00:44:05;;;;;;;4.07;1.83;;;;;;;8.55;94.90;99288.34;5053804;28;20216;-67
2024/02/22 00:46:31;;;;;;;4.27;2.20;;;;;;;8.56;95.55;99290.03;5055874;28;20202;-68
2024/02/22 00:48:58;;;;;;;3.33;2.20;;;;;;;8.54;95.79;99282.19;5054933;28;20216;-67
2024/02/22 00:51:24;;;;;;;4.33;2.07;;;;;;;8.56;96.25;99277.59;5052733;28;20590;-68
2024/02/22 00:53:50;;;;;;;3.00;2.17;;;;;;;8.54;96.26;99276.03;5048785;28;20210;-68
2024/02/22 00:56:17;;;;;;;4.37;2.13;;;;;;;8.53;96.98;99275.19;5054077;28;20232;-68
2024/02/22 00:58:47;;;;;;;3.70;1.83;;;;;;;8.54;97.08;99255.66;5053357;28;20204;-67
2024/02/22 01:01:14;;;;;;;3.60;2.30;;;;;;;8.52;98.03;99254.06;5055814;28;20371;-67
2024/02/22 01:03:41;;;;;;;4.30;2.33;;;;;;;8.49;98.19;99249.00;5050584;28;20720;-67
2024/02/22 01:06:10;;;;;;;3.83;2.10;;;;;;;8.48;98.48;99240.19;5052222;28;20204;-68
2024/02/22 01:08:36;;;;;;;2.93;1.83;;;;;;;8.45;99.06;99236.91;5049184;28;20214;-68
2024/02/22 01:11:03;;;;;;;2.57;2.00;;;;;;;8.44;99.47;99237.88;5052378;28;20220;-68
2024/02/22 01:13:30;;;;;;;4.53;2.07;;;;;;;8.41;99.46;99230.19;5048412;28;20216;-68
2024/02/22 01:15:57;;;;;;;2.40;2.00;;;;;;;8.41;100.00;99219.56;5049435;28;20229;-67
2024/02/22 01:18:24;;;;;;;2.47;1.83;;;;;;;8.40;100.00;99212.56;5045896;28;20213;-68
2024/02/22 01:20:50;;;;;;;4.03;2.47;;;;;;;8.41;100.00;99211.63;5028315;28;20206;-68
2024/02/22 01:23:17;;;;;;;3.00;1.83;;;;;;;8.40;100.00;99207.28;5044413;28;20530;-68
2024/02/22 01:25:43;;;;;;;2.80;1.80;;;;;;;8.38;100.00;99211.84;5042396;28;20524;-67
2024/02/22 01:28:12;;;;;;;3.37;1.70;;;;;;;8.37;100.00;99196.88;5048557;28;20205;-68
2024/02/22 01:30:38;;;;;;;3.83;2.17;;;;;;;8.39;100.00;99192.31;5050680;28;20208;-68
2024/02/22 01:33:09;;;;;;;2.23;2.00;;;;;;;8.40;100.00;99176.28;5052306;28;20248;-67
2024/02/22 01:35:36;;;;;;;3.73;2.17;;;;;;;8.35;100.00;99179.28;5050275;28;20256;-68
2024/02/22 01:38:02;;;;;;;4.73;1.90;;;;;;;8.33;100.00;99170.59;5048917;28;20217;-68
2024/02/22 01:40:29;;;;;;;2.83;2.00;;;;;;;8.32;100.00;99166.25;5048227;28;20707;-68
2024/02/22 01:42:56;;;;;;;3.90;2.30;;;;;;;8.32;100.00;99155.63;5046737;28;20221;-68
2024/02/22 01:45:22;;;;;;;2.40;2.10;;;;;;;8.28;100.00;99155.97;5051252;28;20209;-67
2024/02/22 01:47:49;;;;;;;2.60;1.97;;;;;;;8.24;100.00;99147.38;5050941;28;20588;-67
2024/02/22 01:50:17;;;;;;;3.53;2.13;;;;;;;8.25;100.00;99135.81;5050505;28;20201;-67
2024/02/22 01:52:44;;;;;;;4.87;2.10;;;;;;;8.25;100.00;99130.50;5049005;28;20285;-67
2024/02/22 01:55:11;;;;;;;3.83;2.10;;;;;;;8.23;100.00;99134.28;5047605;28;20213;-68
2024/02/22 01:57:38;;;;;;;2.80;2.03;;;;;;;8.19;100.00;99130.16;5043710;28;20217;-67
2024/02/22 02:00:11;;;;;;;4.77;2.10;;;;;;;8.17;100.00;99117.03;5050438;28;20334;-68
2024/02/22 02:02:38;;;;;;;3.73;2.10;;;;;;;8.19;100.00;99117.75;5044533;28;20232;-68
2024/02/22 02:05:06;;;;;;;3.03;1.87;;;;;;;8.16;100.00;99111.84;5045600;28;20615;-67
2024/02/22 02:07:36;;;;;;;3.60;2.37;;;;;;;8.14;100.00;99117.25;5051175;28;20200;-68
2024/02/22 02:10:03;;;;;;;3.20;2.07;;;;;;;8.13;100.00;99126.16;5046991;28;20206;-67
2024/02/22 02:12:30;;;;;;;6.33;2.43;;;;;;;8.14;100.00;99106.66;5044851;28;20232;-68
2024/02/22 02:14:57;;;;;;;3.17;1.90;;;;;;;8.12;100.00;99103.28;5049345;28;20202;-68
2024/02/22 02:17:23;;;;;;;2.33;1.90;;;;;;;8.10;100.00;99102.53;5049525;28;20232;-68
2024/02/22 02:19:52;;;;;;;2.53;1.80;;;;;;;8.11;100.00;99098.94;5049075;28;20212;-68
2024/02/22 02:22:29;;;;;;;3.37;2.00;;;;;;;8.09;100.00;99095.53;5048637;28;20696;-67
2024/02/22 02:25:01;;;;;;;2.10;1.70;;;;;;;8.08;100.00;99090.34;5047210;28;20197;-68
2024/02/22 02:27:26;;;;;;;3.33;1.83;;;;;;;8.08;100.00;99091.19;5049568;28;20279;-67
2024/02/22 02:29:53;;;;;;;3.00;1.67;;;;;;;8.06;100.00;99084.38;5049808;28;20684;-68
2024/02/22 02:32:19;;;;;;;3.40;2.00;;;;;;;8.07;100.00;99080.72;5048671;28;20233;-68
2024/02/22 02:34:45;;;;;;;1.63;1.50;;;;;;;8.10;100.00;99081.31;5047128;28;20209;-68
2024/02/22 02:37:12;;;;;;;2.23;1.87;;;;;;;8.10;100.00;99062.75;5045225;28;20226;-68
2024/02/22 02:39:38;;;;;;;3.43;2.10;;;;;;;8.07;100.00;99060.34;5047558;28;20221;-68
2024/02/22 02:42:07;;;;;;;2.30;1.70;;;;;;;8.07;100.00;99054.19;5049666;28;20225;-68
2024/02/22 02:44:33;;;;;;;2.03;1.80;;;;;;;8.09;100.00;99045.16;5043405;28;20201;-68
2024/02/22 02:47:02;;;;;;;3.67;2.07;;;;;;;8.09;100.00;99042.53;5049001;28;20577;-68
2024/02/22 02:49:28;;;;;;;3.17;2.20;;;;;;;8.08;100.00;99032.88;5051303;28;20251;-68
2024/02/22 02:51:55;;;;;;;1.90;1.70;;;;;;;8.06;100.00;99037.44;5046160;28;20234;-68
2024/02/22 02:54:21;;;;;;;3.13;1.80;;;;;;;8.08;100.00;99034.69;5050103;28;20220;-68
2024/02/22 02:56:48;;;;;;;2.00;1.37;;;;;;;8.09;100.00;99023.13;5048489;28;20228;-68
2024/02/22 02:59:16;;;;;;;3.40;1.70;;;;;;;8.09;100.00;99026.59;5047838;28;20749;-68
2024/02/22 03:01:46;;;;;;;2.63;1.77;;;;;;;8.11;100.00;99029.13;5045947;28;20225;-68
2024/02/22 03:04:13;;;;;;;2.20;1.70;;;;;;;8.09;100.00;99017.81;5050084;28;20201;-69
2024/02/22 03:06:39;;;;;;;2.63;1.73;;;;;;;8.10;100.00;99011.53;5054453;28;20198;-68
2024/02/22 03:09:06;;;;;;;1.50;1.10;;;;;;;8.08;100.00;99014.31;5050558;28;20294;-68
2024/02/22 03:11:32;;;;;;;1.60;1.50;;;;;;;8.09;100.00;99008.03;5050485;28;20704;-68
2024/02/22 03:13:59;;;;;;;2.03;1.30;;;;;;;8.07;100.00;99001.19;5047163;28;20210;-69
2024/02/22 03:16:26;;;;;;;2.23;1.47;;;;;;;8.06;100.00;99000.34;5052018;28;20225;-68
2024/02/22 03:18:53;;;;;;;2.07;1.50;;;;;;;8.08;100.00;98997.56;5049307;28;20221;-68
2024/02/22 03:21:20;;;;;;;2.03;1.80;;;;;;;8.05;100.00;98993.38;5049828;28;20594;-68
2024/02/22 03:23:47;;;;;;;2.77;1.73;;;;;;;8.07;100.00;98988.75;5045966;28;20229;-68
2024/02/22 03:26:13;;;;;;;1.27;1.00;;;;;;;8.09;100.00;98988.66;5051685;28;20209;-68
2024/02/22 03:28:39;;;;;;;1.97;1.20;;;;;;;8.07;100.00;98980.81;5046099;28;20236;-68
2024/02/22 03:31:07;;;;;;;1.30;1.17;;;;;;;8.08;100.00;98971.88;5053198;28;20589;-68
2024/02/22 03:33:35;;;;;;;1.13;1.07;;;;;;;8.09;100.00;98978.88;5050678;28;20232;-68
2024/02/22 03:36:02;;;;;;;1.10;1.00;;;;;;;8.07;100.00;98970.19;5047994;28;20208;-68
2024/02/22 03:38:28;;;;;;;1.57;1.27;;;;;;;8.09;100.00;98965.63;5051278;28;20288;-68
2024/02/22 03:40:54;;;;;;;1.20;1.00;;;;;;;8.08;100.00;98966.59;5049205;28;20206;-68
2024/02/22 03:43:21;;;;;;;0.93;0.83;;;;;;;8.13;100.00;98966.22;5047718;28;20230;-68
2024/02/22 03:45:48;;;;;;;1.10;1.10;;;;;;;8.15;100.00;98964.31;5050799;28;20213;-68
2024/02/22 03:48:15;;;;;;;0.70;0.70;;;;;;;8.11;100.00;98957.56;5054592;28;20216;-68
2024/02/22 03:50:44;;;;;;;2.17;1.03;;;;;;;8.12;100.00;98954.78;5048003;28;20201;-68
2024/02/22 03:53:10;;;;;;;1.63;1.20;;;;;;;8.14;100.00;98955.50;5048956;28;20711;-68
2024/02/22 03:55:37;;;;;;;1.63;1.07;;;;;;;8.17;100.00;98946.47;5050497;28;20244;-68
2024/02/22 03:58:06;;;;;;;1.10;0.83;;;;;;;8.14;100.00;98950.19;5051178;28;20228;-68
2024/02/22 04:00:33;;;;;;;1.27;1.00;;;;;;;8.15;100.00;98935.97;5051132;28;20197;-69
2024/02/22 04:02:59;;;;;;;3.00;1.50;;;;;;;8.14;100.00;98946.69;5043762;28;20713;-68
2024/02/22 04:05:26;;;;;;;1.70;1.10;;;;;;;8.14;100.00;98939.59;5051867;28;20209;-68
2024/02/22 04:07:54;;;;;;;0.90;0.80;;;;;;;8.13;100.00;98929.94;5051188;28;20219;-68
2024/02/22 04:10:20;;;;;;;1.07;0.50;;;;;;;8.13;100.00;98926.47;5050234;28;20712;-68
2024/02/22 04:12:47;;;;;;;0.67;0.60;;;;;;;8.13;100.00;98921.16;5049260;28;20221;-68
2024/02/22 04:15:14;;;;;;;0.80;0.50;;;;;;;8.15;100.00;98917.41;5046752;28;20225;-68
2024/02/22 04:17:40;;;;;;;0.77;0.70;;;;;;;8.16;100.00;98910.31;5049144;28;20221;-68
2024/02/22 04:20:08;;;;;;;0.70;0.50;;;;;;;8.17;100.00;98912.84;5050836;28;20208;-68
2024/02/22 04:22:48;;;;;;;5.90;1.20;;;;;;;8.20;100.00;98907.28;5050632;28;20315;-68
2024/02/22 04:25:16;;;;;;;0.60;0.60;;;;;;;8.17;100.00;98902.22;5051696;28;20200;-68
2024/02/22 04:27:43;;;;;;;1.10;0.50;;;;;;;8.17;100.00;98899.56;5048649;28;20210;-68
2024/02/22 04:30:11;;;;;;;0.40;0.40;;;;;;;8.18;100.00;98895.97;5049507;28;20205;-68
2024/02/22 04:32:38;;;;;;;0.40;0.30;;;;;;;8.18;100.00;98893.31;5047774;28;20240;-68
2024/02/22 04:35:05;;;;;;;0.37;0.37;;;;;;;8.21;100.00;98889.56;5051335;28;20716;-68
2024/02/22 04:37:32;;;;;;;0.33;0.33;;;;;;;8.19;100.00;98883.53;5048462;28;20704;-68
2024/02/22 04:39:59;;;;;;;0.87;0.50;;;;;;;8.20;100.00;98885.22;5050853;28;20263;-68
2024/02/22 04:42:26;;;;;;;0.60;0.47;;;;;;;8.21;100.00;98887.75;5048419;28;20599;-68
2024/02/22 04:44:53;;;;;;;0.87;0.40;;;;;;;8.24;100.00;98873.41;5050217;28;20206;-68
2024/02/22 04:47:19;;;;;;;0.63;0.50;;;;;;;8.26;100.00;98879.41;5052233;28;20688;-68
2024/02/22 04:49:46;;;;;;;2.07;1.20;;;;;;;8.24;100.00;98882.19;5050673;28;20201;-68
2024/02/22 04:52:12;;;;;;;1.43;1.33;;;;;;;8.27;100.00;98881.09;5048282;28;20421;-68
2024/02/22 04:54:39;;;;;;;1.07;0.97;;;;;;;8.24;100.00;98874.22;5052101;28;20255;-68
2024/02/22 04:57:05;;;;;;;1.37;0.60;;;;;;;8.25;100.00;98873.25;5043621;28;20256;-68
2024/02/22 04:59:33;;;;;;;0.40;0.40;;;;;;;8.23;100.00;98869.91;5052356;28;20212;-67
2024/02/22 05:02:00;;;;;;;0.30;0.30;;;;;;;8.24;100.00;98863.63;5048259;28;20231;-68
2024/02/22 05:04:27;;;;;;;0.43;0.40;;;;;;;8.21;100.00;98866.53;5051626;28;20206;-68
2024/02/22 05:06:53;;;;;;;0.73;0.73;;;;;;;8.22;100.00;98859.44;5051107;28;20206;-68
2024/02/22 05:09:20;;;;;;;1.20;0.47;;;;;;;8.23;100.00;98861.13;5053836;28;20607;-68
2024/02/22 05:11:47;;;;;;;0.60;0.50;;;;;;;8.23;100.00;98853.16;5048701;28;20705;-68
2024/02/22 05:14:13;;;;;;;0.83;0.70;;;;;;;8.22;100.00;98847.00;5050549;28;20209;-68
2024/02/22 05:16:41;;;;;;;0.70;0.60;;;;;;;8.26;100.00;98842.28;5050363;28;20205;-68
2024/02/22 05:19:07;;;;;;;0.80;0.40;;;;;;;8.24;100.00;98849.53;5048306;28;20228;-68
2024/02/22 05:21:34;;;;;;;0.63;0.40;;;;;;;8.24;100.00;98850.34;5039879;28;20237;-68
2024/02/22 05:24:00;;;;;;;0.40;0.40;;;;;;;8.27;100.00;98836.84;5051411;28;20209;-68
2024/02/22 05:26:28;;;;;;;0.30;0.30;;;;;;;8.25;100.00;98845.91;5044037;28;20701;-68
2024/02/22 05:28:55;;;;;;;0.83;0.50;;;;;;;8.26;100.00;98834.31;5052655;28;20741;-67
2024/02/22 05:31:24;;;;;;;1.03;0.40;;;;;;;8.25;100.00;98837.94;5041462;28;20217;-68
2024/02/22 05:33:52;;;;;;;0.30;0.30;;;;;;;8.29;100.00;98829.59;5050118;22;20230;-71
2024/02/22 05:36:20;;;;;;;1.70;0.37;;;;;;;8.30;100.00;98828.63;4998987;28;20199;-74
2024/02/22 05:38:46;;;;;;;0.43;0.30;;;;;;;8.30;100.00;98828.63;5004582;28;20231;-72
2024/02/22 05:41:13;;;;;;;0.60;0.40;;;;;;;8.31;100.00;98825.03;4999281;28;20209;-72
2024/02/22 05:43:39;;;;;;;0.50;0.50;;;;;;;8.32;100.00;98825.91;5001131;28;20439;-74
2024/02/22 05:46:06;;;;;;;1.23;0.40;;;;;;;8.28;100.00;98819.97;5003424;28;20203;-73
2024/02/22 05:48:33;;;;;;;0.37;0.33;;;;;;;8.29;100.00;98810.19;5002830;28;20207;-71
2024/02/22 05:51:00;;;;;;;0.30;0.30;;;;;;;8.31;100.00;98814.41;5003829;28;20202;-73
2024/02/22 05:53:27;;;;;;;0.30;0.30;;;;;;;8.33;100.00;98811.66;5005875;28;20231;-71
2024/02/22 05:55:54;;;;;;;0.93;0.30;;;;;;;8.31;100.00;98809.09;5001523;28;20211;-71
2024/02/22 05:58:20;;;;;;;0.10;0.10;;;;;;;8.33;100.00;98811.66;5002001;28;20615;-74
2024/02/22 06:00:48;;;;;;;0.43;0.30;;;;;;;8.32;100.00;98802.88;5003620;28;20207;-72
2024/02/22 06:03:14;;;;;;;1.10;0.47;;;;;;;8.29;100.00;98799.59;5004648;28;20227;-71
2024/02/22 06:05:42;;;;;;;0.40;0.20;;;;;;;8.28;100.00;98798.75;5003037;28;20206;-72
2024/02/22 06:08:11;;;;;;;0.27;0.27;;;;;;;8.30;100.00;98795.97;5001234;28;20199;-74
2024/02/22 06:10:38;;;;;;;1.10;0.40;;;;;;;8.29;100.00;98795.13;5004557;28;20214;-71
2024/02/22 06:13:04;;;;;;;0.60;0.17;;;;;;;8.33;100.00;98795.75;4996310;28;20880;-73
2024/02/22 06:15:31;;;;;;;0.20;0.20;;;;;;;8.32;100.00;98791.41;5001694;28;20448;-74
2024/02/22 06:17:57;;;;;;;0.30;0.30;;;;;;;8.31;100.00;98792.34;5001989;28;20710;-74
2024/02/22 06:20:24;;;;;;;0.67;0.27;;;;;;;8.33;100.00;98785.16;5001773;28;20210;-73
2024/02/22 06:22:51;;;;;;;0.53;0.40;;;;;;;8.33;100.00;98785.16;4992430;28;20203;-71
2024/02/22 06:25:19;;;;;;;0.30;0.27;;;;;;;8.31;100.00;98787.88;4999014;28;20982;-70
2024/02/22 06:27:46;;;;;;;0.40;0.40;;;;;;;8.34;100.00;98778.88;5000403;28;20226;-73
2024/02/22 06:30:14;;;;;;;0.30;0.30;;;;;;;8.34;100.00;98776.22;5002547;28;20208;-73
2024/02/22 06:32:40;;;;;;;0.40;0.30;;;;;;;8.31;100.00;98766.66;4998360;28;20708;-72
2024/02/22 06:35:08;;;;;;;0.33;0.20;;;;;;;8.32;100.00;98776.34;5000092;28;20230;-73
2024/02/22 06:37:34;;;;;;;1.20;1.07;;;;;;;8.34;100.00;98768.25;5003171;28;20234;-71
2024/02/22 06:40:01;;;;;;;0.97;0.40;;;;;;;8.35;100.00;98773.44;5002367;28;20678;-70
2024/02/22 06:42:30;;;;;;;0.40;0.40;;;;;;;8.33;100.00;98767.41;5004693;28;20314;-72
2024/02/22 06:44:56;;;;;;;1.27;0.80;;;;;;;8.34;100.00;98771.75;5009623;28;20497;-72
2024/02/22 06:47:23;;;;;;;0.63;0.50;;;;;;;8.35;100.00;98773.44;5003750;28;20207;-71
2024/02/22 06:49:49;;;;;;;0.83;0.83;;;;;;;8.34;100.00;98766.44;5002559;28;20235;-72
2024/02/22 06:52:16;;;;;;;0.70;0.60;;;;;;;8.36;100.00;98774.28;5004488;28;20211;-71
2024/02/22 06:54:42;;;;;;;0.70;0.60;;;;;;;8.34;100.00;98766.44;5005864;28;20718;-72
2024/02/22 06:57:08;;;;;;;0.60;0.60;;;;;;;8.34;100.00;98763.81;5006437;28;20229;-70
2024/02/22 06:59:36;;;;;;;0.50;0.40;;;;;;;8.37;100.00;98765.34;5007334;28;20207;-72
2024/02/22 07:02:03;;;;;;;0.37;0.30;;;;;;;8.35;100.00;98756.69;5007360;28;20206;-72
2024/02/22 07:04:31;;;;;;;0.90;0.70;;;;;;;8.35;100.00;98762.84;5007806;28;20231;-72
2024/02/22 07:06:58;;;;;;;1.07;0.37;;;;;;;8.34;100.00;98762.97;5008638;28;20205;-72
2024/02/22 07:09:24;;;;;;;0.60;0.43;;;;;;;8.38;100.00;98760.91;5007853;28;20211;-72
2024/02/22 07:11:51;;;;;;;2.03;0.50;;;;;;;8.38;100.00;98761.75;5007459;28;20203;-71
2024/02/22 07:14:19;;;;;;;1.27;0.57;;;;;;;8.42;100.00;98764.97;5008494;28;20233;-73
2024/02/22 07:16:49;;;;;;;1.00;0.60;;;;;;;8.42;100.00;98755.19;5009849;28;20195;-72
2024/02/22 07:19:15;;;;;;;2.20;0.80;;;;;;;8.41;100.00;98760.63;4999879;28;20233;-73
2024/02/22 07:21:42;;;;;;;2.40;1.00;;;;;;;8.39;100.00;98763.41;5007337;28;20230;-72
2024/02/22 07:24:08;;;;;;;2.47;1.27;;;;;;;8.44;100.00;98763.00;5006975;28;20227;-72
2024/02/22 07:26:35;;;;;;;2.83;1.53;;;;;;;8.45;100.00;98756.72;5008766;28;20214;-69
2024/02/22 07:29:02;;;;;;;2.03;0.93;;;;;;;8.52;100.00;98765.88;5008624;28;20199;-72
2024/02/22 07:31:28;;;;;;;0.80;0.47;;;;;;;8.52;100.00;98758.75;5004604;28;20242;-72
2024/02/22 07:33:56;;;;;;;3.03;0.37;;;;;;;8.54;100.00;98770.06;5006476;28;20226;-72
2024/02/22 07:36:24;;;;;;;0.10;0.10;;;;;;;8.54;100.00;98758.63;5006849;28;20666;-73
2024/02/22 07:38:50;;;;;;;0.20;0.20;;;;;;;8.53;100.00;98760.44;5009948;28;20702;-72
2024/02/22 07:41:17;;;;;;;0.40;0.23;;;;;;;8.53;100.00;98760.44;5004410;28;20672;-73
2024/02/22 07:43:44;;;;;;;0.23;0.23;;;;;;;8.54;100.00;98751.50;5008377;28;20230;-72
2024/02/22 07:46:11;;;;;;;1.37;0.60;;;;;;;8.58;100.00;98755.59;5009298;28;20199;-73
2024/02/22 07:48:38;;;;;;;0.40;0.20;;;;;;;8.57;100.00;98750.41;5008438;28;20452;-72
2024/02/22 07:51:06;;;;;;;0.47;0.37;;;;;;;8.57;100.00;98753.06;5005658;28;20207;-69
2024/02/22 07:53:34;;;;;;;1.13;0.20;;;;;;;8.57;100.00;98751.25;5008781;28;20250;-71
2024/02/22 07:56:02;;;;;;;1.23;0.60;;;;;;;8.58;100.00;98747.63;5004522;28;20567;-72
2024/02/22 07:58:29;;;;;;;0.23;0.20;;;;;;;8.66;100.00;98744.31;5001850;28;20317;-70
2024/02/22 08:00:58;;;;;;;1.70;0.23;;;;;;;8.67;100.00;98751.28;5006730;28;20210;-73
2024/02/22 08:03:25;;;;;;;0.40;0.40;;;;;;;8.67;100.00;98752.13;5006759;28;20227;-73
2024/02/22 08:05:52;;;;;;;0.27;0.10;;;;;;;8.68;100.00;98745.84;5003597;28;20210;-73
2024/02/22 08:08:21;;;;;;;0.50;0.20;;;;;;;8.69;100.00;98752.84;5006036;28;20225;-74
2024/02/22 08:10:47;;;;;;;0.70;0.30;;;;;;;8.70;100.00;98745.72;5005204;28;20234;-71
2024/02/22 08:13:14;;;;;;;0.40;0.30;;;;;;;8.73;100.00;98744.63;5004044;28;20237;-71
2024/02/22 08:15:40;;;;;;;0.53;0.20;;;;;;;8.77;100.00;98752.19;5007088;28;20210;-73
2024/02/22 08:18:07;;;;;;;0.20;0.20;;;;;;;8.76;100.00;98739.06;5003609;28;20234;-72
2024/02/22 08:20:37;;;;;;;0.87;0.30;;;;;;;8.77;100.00;98738.94;4997398;28;20776;-72
2024/02/22 08:23:08;;;;;;;2.07;0.50;;;;;;;8.79;100.00;98734.31;5003322;28;20218;-72
2024/02/22 08:25:37;;;;;;;0.57;0.20;;;;;;;8.80;100.00;98730.69;5004552;28;20638;-71
2024/02/22 08:28:04;;;;;;;0.23;0.20;;;;;;;8.84;100.00;98732.09;5005342;28;20994;-71
2024/02/22 08:30:30;;;;;;;0.53;0.20;;;;;;;8.90;100.00;98720.97;5006540;28;20215;-71
2024/02/22 08:32:57;;;;;;;1.13;0.20;;;;;;;8.89;100.00;98721.94;5004077;28;20239;-71
2024/02/22 08:35:23;;;;;;;0.77;0.30;;;;;;;8.92;100.00;98718.19;5005258;28;20768;-72
2024/02/22 08:37:50;;;;;;;0.60;0.40;;;;;;;8.96;100.00;98724.88;5007946;28;20203;-71
2024/02/22 08:40:16;;;;;;;0.40;0.30;;;;;;;8.96;100.00;98714.25;5003190;28;20702;-72
2024/02/22 08:42:44;;;;;;;0.40;0.30;;;;;;;8.97;100.00;98711.47;5004059;28;20309;-72
2024/02/22 08:45:14;;;;;;;0.60;0.30;;;;;;;8.97;100.00;98711.47;5003761;28;20217;-72
2024/02/22 08:47:40;;;;;;;1.27;0.50;;;;;;;8.99;100.00;98706.88;5007079;28;20214;-71
2024/02/22 08:50:08;;;;;;;0.27;0.23;;;;;;;9.01;100.00;98699.59;5005661;28;20215;-72
2024/02/22 08:52:36;;;;;;;0.60;0.30;;;;;;;9.01;100.00;98696.94;5007090;28;20234;-69
2024/02/22 08:55:02;;;;;;;1.70;0.43;;;;;;;9.02;100.00;98701.28;5004870;28;20222;-72
2024/02/22 08:57:29;;;;;;;0.90;0.50;;;;;;;9.01;100.00;98696.94;5003982;28;20207;-71
2024/02/22 08:59:57;;;;;;;2.93;1.47;;;;;;;9.01;100.00;98694.31;5006062;28;20233;-71
2024/02/22 09:02:23;;;;;;;1.07;0.80;;;;;;;9.07;100.00;98679.66;5002114;28;20210;-72
2024/02/22 09:04:49;;;;;;;2.30;1.50;;;;;;;9.09;100.00;98679.53;5004929;28;20237;-69
2024/02/22 09:07:16;;;;;;;0.70;0.50;;;;;;;9.19;100.00;98672.41;5008236;28;20594;-73
2024/02/22 09:09:44;;;;;;;2.40;0.70;;;;;;;9.26;100.00;98665.59;5002884;28;20207;-74
2024/02/22 09:12:12;;;;;;;0.57;0.20;;;;;;;9.26;100.00;98662.94;5002049;28;20258;-73
2024/02/22 09:14:38;;;;;;;1.03;0.40;;;;;;;9.30;100.00;98656.38;5006110;28;20788;-74
2024/02/22 09:17:06;;;;;;;1.63;0.77;;;;;;;9.31;100.00;98645.59;5003938;28;20212;-71
2024/02/22 09:19:33;;;;;;;0.43;0.40;;;;;;;9.36;100.00;98637.19;5006019;28;20266;-71
2024/02/22 09:22:00;;;;;;;1.67;0.80;;;;;;;9.40;100.00;98633.28;5000528;28;20207;-72
2024/02/22 09:24:27;;;;;;;1.00;0.70;;;;;;;9.44;100.00;98624.06;5005064;28;20288;-71
2024/02/22 09:26:53;;;;;;;1.23;0.60;;;;;;;9.52;100.00;98631.34;5004598;28;20587;-70
2024/02/22 09:29:20;;;;;;;0.50;0.43;;;;;;;9.60;100.00;98629.66;5002294;28;20662;-71
2024/02/22 09:31:46;;;;;;;1.10;0.60;;;;;;;9.67;100.00;98625.44;4997767;28;20212;-72
2024/02/22 09:34:14;;;;;;;1.20;0.30;;;;;;;9.73;100.00;98632.88;5004594;28;20235;-68
2024/02/22 09:36:41;;;;;;;0.80;0.40;;;;;;;9.75;100.00;98627.41;5003481;28;20199;-71
2024/02/22 09:39:08;;;;;;;0.40;0.33;;;;;;;9.79;100.00;98628.81;5004515;28;20230;-72
2024/02/22 09:41:34;;;;;;;0.73;0.50;;;;;;;9.82;100.00;98623.22;5002601;28;20222;-68
2024/02/22 09:44:01;;;;;;;0.30;0.23;;;;;;;9.85;100.00;98628.28;5004272;28;20234;-73
2024/02/22 09:46:28;;;;;;;0.60;0.50;;;;;;;9.90;100.00;98635.78;5006658;28;20205;-71
2024/02/22 09:48:55;;;;;;;1.10;0.33;;;;;;;9.95;100.00;98628.25;5004880;28;20208;-73
2024/02/22 09:51:24;;;;;;;0.30;0.20;;;;;;;10.00;100.00;98620.69;5003205;28;20204;-75
2024/02/22 09:53:51;;;;;;;0.70;0.40;;;;;;;10.05;100.00;98613.09;5003833;28;20231;-71
2024/02/22 09:56:18;;;;;;;1.37;0.93;;;;;;;10.13;100.00;98613.22;5004506;28;20477;-72
2024/02/22 09:58:47;;;;;;;0.70;0.40;;;;;;;10.16;100.00;98615.59;5003706;28;20226;-72
2024/02/22 10:01:13;;;;;;;1.93;0.87;;;;;;;10.24;100.00;98623.72;5001914;28;21022;-70
2024/02/22 10:03:40;;;;;;;0.70;0.40;;;;;;;10.27;100.00;98615.44;5000992;28;20231;-67
2024/02/22 10:06:16;;;;;;;1.70;0.40;;;;;;;10.31;100.00;98602.72;5003767;28;20255;-71
2024/02/22 10:08:44;;;;;;;1.40;0.90;;;;;;;10.34;100.00;98602.41;5007089;28;20199;-71
2024/02/22 10:11:11;;;;;;;0.37;0.20;;;;;;;10.38;100.00;98606.47;5002534;28;20757;-73
2024/02/22 10:13:37;;;;;;;1.03;0.57;;;;;;;10.36;100.00;98603.97;5004116;28;20306;-72
2024/02/22 10:16:11;;;;;;;0.30;0.30;;;;;;;10.33;100.00;98590.94;4999621;28;20204;-71
2024/02/22 10:18:39;;;;;;;0.40;0.40;;;;;;;10.35;100.00;98590.78;5006291;28;20264;-73
2024/02/22 10:21:17;;;;;;;0.70;0.50;;;;;;;10.35;100.00;98586.31;4999004;28;20683;-73
2024/02/22 10:23:46;;;;;;;1.27;0.63;;;;;;;10.36;100.00;98588.00;5004230;28;20309;-71
2024/02/22 10:26:12;;;;;;;1.27;1.00;;;;;;;10.44;100.00;98576.59;5004728;28;20248;-74
2024/02/22 10:28:40;;;;;;;1.97;1.20;;;;;;;10.50;100.00;98572.53;5002956;28;20203;-73
2024/02/22 10:31:07;;;;;;;2.13;1.30;;;;;;;10.50;100.00;98568.03;5002324;28;20288;-73
2024/02/22 10:33:34;;;;;;;0.93;0.70;;;;;;;10.56;100.00;98566.63;5004588;28;20240;-73
2024/02/22 10:36:01;;;;;;;0.97;0.80;;;;;;;10.54;100.00;98561.44;5002338;28;20196;-73
2024/02/22 10:38:29;;;;;;;1.33;1.00;;;;;;;10.58;100.00;98564.63;5006551;28;20199;-73
2024/02/22 10:40:58;;;;;;;1.27;0.90;;;;;;;10.62;100.00;98563.34;5006994;28;20211;-73
2024/02/22 10:43:25;;;;;;;0.40;0.40;;;;;;;10.68;100.00;98562.75;5002178;28;20267;-72
2024/02/22 10:45:54;;;;;;;1.60;1.00;;;;;;;10.74;100.00;98548.88;5005071;28;20295;-72
2024/02/22 10:48:21;;;;;;;1.00;0.30;;;;;;;10.75;100.00;98553.19;5006021;28;20205;-73
2024/02/22 10:50:49;;;;;;;1.63;1.03;;;;;;;10.79;100.00;98543.91;5005575;28;20265;-73
2024/02/22 10:53:16;;;;;;;0.70;0.40;;;;;;;10.84;100.00;98532.81;5001191;28;20248;-74
2024/02/22 10:55:49;;;;;;;0.30;0.30;;;;;;;10.90;100.00;98530.41;5006229;28;20209;-73
2024/02/22 10:58:19;;;;;;;0.53;0.43;;;;;;;10.92;100.00;98522.25;5005741;28;20201;-71
2024/02/22 11:00:48;;;;;;;0.37;0.30;;;;;;;10.98;100.00;98513.66;5005455;28;20283;-74
2024/02/22 11:03:16;;;;;;;0.50;0.33;;;;;;;11.02;100.00;98515.88;5004602;28;20292;-71
2024/02/22 11:05:47;;;;;;;0.77;0.50;;;;;;;11.11;100.00;98511.44;5004346;28;20217;-74
2024/02/22 11:08:20;;;;;;;0.30;0.30;;;;;;;11.18;100.00;98506.34;5003522;28;21504;-73
2024/02/22 11:10:46;;;;;;;0.20;0.20;;;;;;;11.26;100.00;98496.59;4998097;28;20195;-72
2024/02/22 11:13:14;;;;;;;1.30;0.80;;;;;;;11.36;100.00;98488.50;5000045;28;21631;-72
2024/02/22 11:15:42;;;;;;;2.10;0.90;;;;;;;11.41;100.00;98486.22;5002704;28;20209;-72
2024/02/22 11:18:08;;;;;;;2.83;1.20;;;;;;;11.52;100.00;98474.47;5005753;28;20217;-73
2024/02/22 11:20:36;;;;;;;0.50;0.40;;;;;;;11.61;100.00;98462.88;5002509;28;20237;-72
2024/02/22 11:23:12;;;;;;;1.10;0.80;;;;;;;11.69;100.00;98458.41;5002862;28;20824;-71
2024/02/22 11:25:38;;;;;;;0.50;0.40;;;;;;;11.75;98.89;98452.47;5009379;28;20751;-73
2024/02/22 11:28:05;;;;;;;0.70;0.20;;;;;;;11.85;96.91;98441.69;5007981;28;20211;-73
2024/02/22 11:30:32;;;;;;;0.50;0.50;;;;;;;11.92;98.42;98439.25;5010242;28;20724;-72
2024/02/22 11:33:00;;;;;;;4.20;1.50;;;;;;;11.99;95.31;98429.63;5005183;28;20234;-72
2024/02/22 11:39:19;;;;;;;1.80;0.80;;;;;;;12.00;94.10;98416.09;5019242;28;20671;-81